createdAt,value
2023-02-05T00:01:29.271Z,3.45
2023-02-05T00:04:00.233Z,3.30
2023-02-05T00:06:31.222Z,3.63
2023-02-05T00:09:02.229Z,3.85
2023-02-05T00:11:33.367Z,3.65
2023-02-05T00:14:04.320Z,3.45
2023-02-05T00:16:37.624Z,3.22
2023-02-05T00:19:08.562Z,3.05
2023-02-05T00:21:40.968Z,3.05
2023-02-05T00:24:12.607Z,3.30
2023-02-05T00:26:43.776Z,2.90
2023-02-05T00:29:17.600Z,3.20
2023-02-05T00:34:21.472Z,2.92
2023-02-05T00:36:52.184Z,3.25
2023-02-05T00:39:23.064Z,3.00
2023-02-05T00:41:55.092Z,2.63
2023-02-05T00:44:28.167Z,3.15
2023-02-05T00:46:58.899Z,2.90
2023-02-05T00:49:29.750Z,3.40
2023-02-05T00:52:00.509Z,2.83
2023-02-05T00:54:31.586Z,3.05
2023-02-05T00:57:02.584Z,2.72
2023-02-05T00:59:33.463Z,2.35
2023-02-05T01:02:26.910Z,2.47
2023-02-05T01:04:58.208Z,3.10
2023-02-05T01:07:30.052Z,2.63
2023-02-05T01:10:02.293Z,2.63
2023-02-05T01:12:34.768Z,2.72
2023-02-05T01:15:08.169Z,2.47
2023-02-05T01:17:39.188Z,2.92
2023-02-05T01:20:14.305Z,2.25
2023-02-05T01:22:48.516Z,2.58
2023-02-05T01:25:20.028Z,2.70
2023-02-05T01:27:51.219Z,2.72
2023-02-05T01:30:22.519Z,2.17
2023-02-05T01:32:53.822Z,2.47
2023-02-05T01:35:24.893Z,2.65
2023-02-05T01:38:15.721Z,2.40
2023-02-05T01:40:47.131Z,2.85
2023-02-05T01:43:20.089Z,2.40
2023-02-05T01:46:00.252Z,2.47
2023-02-05T01:51:29.109Z,2.33
2023-02-05T01:54:24.349Z,2.20
2023-02-05T01:57:04.868Z,2.63
2023-02-05T01:59:41.050Z,2.67
2023-02-05T02:02:12.458Z,2.70
2023-02-05T02:04:47.058Z,2.40
2023-02-05T02:07:21.483Z,2.50
2023-02-05T02:09:54.418Z,2.35
2023-02-05T02:12:34.341Z,2.60
2023-02-05T02:15:14.771Z,2.22
2023-02-05T02:17:50.065Z,2.40
2023-02-05T02:20:36.560Z,2.30
2023-02-05T02:23:30.461Z,2.30
2023-02-05T02:26:35.276Z,2.40
2023-02-05T02:32:14.965Z,2.60
2023-02-05T02:34:58.802Z,2.60
2023-02-05T02:37:56.538Z,2.53
2023-02-05T02:40:41.137Z,2.55
2023-02-05T02:43:40.289Z,2.53
2023-02-05T02:46:25.001Z,2.30
2023-02-05T02:49:19.383Z,2.58
2023-02-05T02:51:53.656Z,2.72
2023-02-05T02:54:26.475Z,2.70
2023-02-05T02:57:00.449Z,2.17
2023-02-05T02:59:36.863Z,2.40
2023-02-05T03:02:12.486Z,2.50
2023-02-05T03:05:20.446Z,2.50
2023-02-05T03:08:01.812Z,2.22
2023-02-05T03:10:40.508Z,2.30
2023-02-05T03:13:15.540Z,2.47
2023-02-05T03:15:52.664Z,2.63
2023-02-05T03:18:27.252Z,2.40
2023-02-05T03:21:27.473Z,2.30
2023-02-05T03:23:59.153Z,2.60
2023-02-05T03:26:33.414Z,2.35
2023-02-05T03:29:17.673Z,2.25
2023-02-05T03:32:13.388Z,2.60
2023-02-05T03:35:34.178Z,2.38
2023-02-05T03:38:39.435Z,2.80
2023-02-05T03:42:00.751Z,2.15
2023-02-05T03:44:53.055Z,2.35
2023-02-05T03:47:51.198Z,2.00
2023-02-05T03:50:50.817Z,2.58
2023-02-05T03:53:53.829Z,2.25
2023-02-05T03:56:51.868Z,2.70
2023-02-05T03:59:27.113Z,2.50
2023-02-05T04:02:01.880Z,2.45
2023-02-05T04:04:35.218Z,2.75
2023-02-05T04:07:21.799Z,2.72
2023-02-05T04:09:56.183Z,2.22
2023-02-05T04:12:27.881Z,2.22
2023-02-05T04:14:59.225Z,2.25
2023-02-05T04:17:31.442Z,2.33
2023-02-05T04:20:03.022Z,2.42
2023-02-05T04:22:35.738Z,2.53
2023-02-05T04:25:07.222Z,2.45
2023-02-05T04:27:59.455Z,2.40
2023-02-05T04:30:31.309Z,2.63
2023-02-05T04:33:03.529Z,2.10
2023-02-05T04:35:35.735Z,2.63
2023-02-05T04:38:07.085Z,2.33
2023-02-05T04:40:37.894Z,2.28
2023-02-05T04:43:28.692Z,2.40
2023-02-05T04:49:06.302Z,2.10
2023-02-05T04:51:37.678Z,2.25
2023-02-05T04:54:09.220Z,2.40
2023-02-05T04:56:51.391Z,2.47
2023-02-05T04:59:53.751Z,2.42
2023-02-05T05:02:29.220Z,2.72
2023-02-05T05:05:00.678Z,2.75
2023-02-05T05:07:34.814Z,2.42
2023-02-05T05:10:09.001Z,2.63
2023-02-05T05:12:41.700Z,2.72
2023-02-05T05:15:14.104Z,3.05
2023-02-05T05:17:46.105Z,2.92
2023-02-05T05:20:19.942Z,3.35
2023-02-05T05:22:59.643Z,3.10
2023-02-05T05:25:31.583Z,3.42
2023-02-05T05:28:05.377Z,3.20
2023-02-05T05:30:36.448Z,3.50
2023-02-05T05:36:12.685Z,2.72
2023-02-05T05:38:45.710Z,2.88
2023-02-05T05:41:44.308Z,3.15
2023-02-05T05:44:15.449Z,2.95
2023-02-05T05:46:47.206Z,3.03
2023-02-05T05:49:24.515Z,3.58
2023-02-05T05:51:56.019Z,2.95
2023-02-05T05:54:27.343Z,3.30
2023-02-05T05:56:58.545Z,3.25
2023-02-05T05:59:49.670Z,3.13
2023-02-05T06:02:20.886Z,3.10
2023-02-05T06:04:52.235Z,3.00
2023-02-05T06:07:23.471Z,3.03
2023-02-05T06:09:55.743Z,2.70
2023-02-05T06:12:26.851Z,2.30
2023-02-05T06:14:57.989Z,3.25
2023-02-05T06:17:29.553Z,3.38
2023-02-05T06:20:00.751Z,3.75
2023-02-05T06:22:33.168Z,3.42
2023-02-05T06:25:04.796Z,3.45
2023-02-05T06:27:37.396Z,3.75
2023-02-05T06:30:11.814Z,3.42
2023-02-05T06:33:04.302Z,3.47
2023-02-05T06:35:36.848Z,3.63
2023-02-05T06:38:09.104Z,3.30
2023-02-05T06:40:40.123Z,3.47
2023-02-05T06:43:36.207Z,3.10
2023-02-05T06:46:07.781Z,3.40
2023-02-05T06:48:39.710Z,3.58
2023-02-05T06:51:10.989Z,2.80
2023-02-05T06:53:42.299Z,3.58
2023-02-05T06:56:14.607Z,3.05
2023-02-05T06:58:45.756Z,3.50
2023-02-05T07:01:17.817Z,3.88
2023-02-05T07:03:50.370Z,3.47
2023-02-05T07:06:21.803Z,3.38
2023-02-05T07:08:54.698Z,3.20
2023-02-05T07:11:26.602Z,3.58
2023-02-05T07:13:57.585Z,3.40
2023-02-05T07:16:28.915Z,3.60
2023-02-05T07:19:01.811Z,3.40
2023-02-05T07:21:38.124Z,3.03
2023-02-05T07:24:09.644Z,3.10
2023-02-05T07:26:42.525Z,3.63
2023-02-05T07:29:34.600Z,3.25
2023-02-05T07:32:06.041Z,3.17
2023-02-05T07:34:37.397Z,3.83
2023-02-05T07:37:08.742Z,3.78
2023-02-05T07:39:40.018Z,6.28
2023-02-05T07:42:11.638Z,5.53
2023-02-05T07:44:53.252Z,5.28
2023-02-05T07:47:24.572Z,5.00
2023-02-05T07:49:59.049Z,4.93
2023-02-05T07:52:32.456Z,4.80
2023-02-05T07:55:03.705Z,4.22
2023-02-05T07:57:35.057Z,4.68
2023-02-05T08:00:29.579Z,4.88
2023-02-05T08:03:00.833Z,4.53
2023-02-05T08:05:33.897Z,4.57
2023-02-05T08:08:25.184Z,4.82
2023-02-05T08:11:06.135Z,4.35
2023-02-05T08:13:38.317Z,4.65
2023-02-05T08:16:10.237Z,4.38
2023-02-05T08:18:42.725Z,4.68
2023-02-05T08:21:14.190Z,4.72
2023-02-05T08:23:45.678Z,4.68
2023-02-05T08:29:04.621Z,4.40
2023-02-05T08:31:36.838Z,5.28
2023-02-05T08:34:14.726Z,5.32
2023-02-05T08:36:47.692Z,5.30
2023-02-05T08:39:18.772Z,5.43
2023-02-05T08:41:51.166Z,5.65
2023-02-05T08:44:22.516Z,5.00
2023-02-05T08:46:53.568Z,5.15
2023-02-05T08:49:24.892Z,4.78
2023-02-05T08:51:56.975Z,4.43
2023-02-05T08:54:28.701Z,5.43
2023-02-05T08:57:00.254Z,5.28
2023-02-05T08:59:31.928Z,6.05
2023-02-05T09:02:05.149Z,5.53
2023-02-05T09:04:38.169Z,5.68
2023-02-05T09:09:54.131Z,6.05
2023-02-05T09:12:25.283Z,5.75
2023-02-05T09:14:56.445Z,5.85
2023-02-05T09:17:28.720Z,6.10
2023-02-05T09:20:02.927Z,5.68
2023-02-05T09:23:55.255Z,5.70
2023-02-05T09:26:27.326Z,6.03
2023-02-05T09:28:59.490Z,5.63
2023-02-05T09:31:30.429Z,5.90
2023-02-05T09:34:07.240Z,6.90
2023-02-05T09:36:38.386Z,9.20
2023-02-05T09:40:19.373Z,10.88
2023-02-05T09:42:51.727Z,9.27
2023-02-05T09:45:40.737Z,9.18
2023-02-05T09:48:44.595Z,9.73
2023-02-05T09:51:16.080Z,9.70
2023-02-05T09:53:52.628Z,8.95
2023-02-05T09:56:54.144Z,9.05
2023-02-05T09:59:42.323Z,8.73
2023-02-05T10:09:18.020Z,8.02
2023-02-05T10:11:57.609Z,9.25
2023-02-05T10:14:50.966Z,8.27
2023-02-05T10:17:49.968Z,8.70
2023-02-05T10:21:09.443Z,8.20
2023-02-05T10:24:19.585Z,8.15
2023-02-05T10:27:18.289Z,8.02
2023-02-05T10:30:19.326Z,8.77
2023-02-05T10:36:27.093Z,7.82
2023-02-05T10:39:03.336Z,7.88
2023-02-05T10:41:47.983Z,7.78
2023-02-05T10:44:33.817Z,7.95
2023-02-05T10:47:20.528Z,7.75
2023-02-05T10:50:00.990Z,8.30
2023-02-05T10:52:34.853Z,8.30
2023-02-05T10:55:07.789Z,7.43
2023-02-05T10:57:39.027Z,8.10
2023-02-05T11:00:22.356Z,7.63
2023-02-05T11:02:56.693Z,8.23
2023-02-05T11:05:43.570Z,8.73
2023-02-05T11:08:40.865Z,7.82
2023-02-05T11:11:33.681Z,7.97
2023-02-05T11:14:46.615Z,7.28
2023-02-05T11:17:38.903Z,7.95
2023-02-05T11:20:31.458Z,8.83
2023-02-05T11:23:25.651Z,7.80
2023-02-05T11:26:25.050Z,8.15
2023-02-05T11:29:36.892Z,7.75
2023-02-05T11:32:20.042Z,7.65
2023-02-05T11:35:13.571Z,6.65
2023-02-05T11:37:53.043Z,7.10
2023-02-05T11:40:46.800Z,7.72
2023-02-05T11:46:39.657Z,7.40
2023-02-05T11:49:29.992Z,7.80
2023-02-05T11:52:04.100Z,6.90
2023-02-05T11:54:38.510Z,7.55
2023-02-05T11:57:33.553Z,7.82
2023-02-05T12:00:14.629Z,7.68
2023-02-05T12:02:46.581Z,7.63
2023-02-05T12:05:32.817Z,6.75
2023-02-05T12:08:38.976Z,7.53
2023-02-05T12:11:22.612Z,7.40
2023-02-05T12:17:24.399Z,6.93
2023-02-05T12:20:02.406Z,7.18
2023-02-05T12:22:45.309Z,7.43
2023-02-05T12:25:21.938Z,7.35
2023-02-05T12:28:36.796Z,7.18
2023-02-05T12:31:43.404Z,6.90
2023-02-05T12:34:17.270Z,7.43
2023-02-05T12:50:00.328Z,7.18
2023-02-05T12:52:40.330Z,6.85
2023-02-05T12:55:17.389Z,6.93
2023-02-05T12:58:15.810Z,7.72
2023-02-05T13:00:55.480Z,7.65
2023-02-05T13:03:40.742Z,7.88
2023-02-05T13:06:34.330Z,7.53
2023-02-05T13:09:11.367Z,7.75
2023-02-05T13:14:48.363Z,7.60
2023-02-05T13:17:33.414Z,7.40
2023-02-05T13:20:48.071Z,7.47
2023-02-05T13:23:42.205Z,7.25
2023-02-05T13:26:29.671Z,7.38
2023-02-05T13:32:37.711Z,7.20
2023-02-05T13:35:10.651Z,8.13
2023-02-05T13:38:22.378Z,7.28
2023-02-05T13:41:20.536Z,7.78
2023-02-05T13:44:14.259Z,7.90
2023-02-05T13:47:21.341Z,8.35
2023-02-05T13:50:21.346Z,8.25
2023-02-05T13:53:27.833Z,8.75
2023-02-05T13:56:15.400Z,8.53
2023-02-05T14:02:46.471Z,7.75
2023-02-05T14:05:41.859Z,8.63
2023-02-05T14:08:39.028Z,7.45
2023-02-05T14:11:12.241Z,7.80
2023-02-05T14:16:28.294Z,7.47
2023-02-05T14:19:08.068Z,7.68
2023-02-05T14:21:48.148Z,7.82
2023-02-05T14:24:57.354Z,8.23
2023-02-05T14:30:51.846Z,8.40
2023-02-05T14:33:42.296Z,8.23
2023-02-05T14:36:34.894Z,7.43
2023-02-05T14:39:40.654Z,6.82
2023-02-05T14:42:42.217Z,7.90
2023-02-05T14:45:56.232Z,7.55
2023-02-05T14:48:35.208Z,8.00
2023-02-05T14:51:18.955Z,7.60
2023-02-05T14:54:09.988Z,8.43
2023-02-05T14:57:17.218Z,8.32
2023-02-05T15:00:02.497Z,8.32
2023-02-05T15:02:52.567Z,7.97
2023-02-05T15:05:51.981Z,8.18
2023-02-05T15:08:38.417Z,7.75
2023-02-05T15:11:46.212Z,8.48
2023-02-05T15:14:52.468Z,8.73
2023-02-05T15:17:52.949Z,8.18
2023-02-05T15:20:33.256Z,8.75
2023-02-05T15:23:19.427Z,8.02
2023-02-05T15:26:34.384Z,8.50
2023-02-05T15:29:15.960Z,7.55
2023-02-05T15:31:57.467Z,7.97
2023-02-05T15:35:47.103Z,8.00
2023-02-05T15:38:45.099Z,7.72
2023-02-05T15:42:22.447Z,7.32
2023-02-05T15:45:19.261Z,8.00
2023-02-05T15:48:02.579Z,7.35
2023-02-05T15:53:55.080Z,8.00
2023-02-05T15:56:35.048Z,8.52
2023-02-05T15:59:32.293Z,8.73
2023-02-05T16:02:25.052Z,8.02
2023-02-05T16:05:34.469Z,8.13
2023-02-05T16:10:59.201Z,7.55
2023-02-05T16:14:15.084Z,7.72
2023-02-05T16:17:05.586Z,7.75
2023-02-05T16:20:14.776Z,7.85
2023-02-05T16:26:25.024Z,8.07
2023-02-05T16:29:24.860Z,7.32
2023-02-05T16:32:40.245Z,8.45
2023-02-05T16:35:44.582Z,7.63
2023-02-05T16:41:42.784Z,7.70
2023-02-05T16:44:35.217Z,7.28
2023-02-05T16:48:21.962Z,7.68
2023-02-05T16:50:55.218Z,7.20
2023-02-05T16:53:29.192Z,7.70
2023-02-05T16:59:10.487Z,7.03
2023-02-05T17:01:52.826Z,7.55
2023-02-05T17:04:39.419Z,7.75
2023-02-05T17:07:23.900Z,7.35
2023-02-05T17:10:09.573Z,7.18
2023-02-05T17:13:06.762Z,6.80
2023-02-05T17:15:42.266Z,7.97
2023-02-05T17:18:26.192Z,6.78
2023-02-05T17:21:40.764Z,7.53
2023-02-05T17:24:17.443Z,7.40
2023-02-05T17:30:12.495Z,6.82
2023-02-05T17:36:01.867Z,6.63
2023-02-05T17:38:33.068Z,7.10
2023-02-05T17:41:22.494Z,7.13
2023-02-05T17:43:53.638Z,7.70
2023-02-05T17:47:24.649Z,7.10
2023-02-05T17:50:01.695Z,6.78
2023-02-05T17:52:54.043Z,7.00
2023-02-05T17:55:26.357Z,6.80
2023-02-05T17:57:58.793Z,6.80
2023-02-05T18:00:42.604Z,6.95
2023-02-05T18:03:14.096Z,6.97
2023-02-05T18:05:44.831Z,6.97
2023-02-05T18:08:15.987Z,6.72
2023-02-05T18:10:46.982Z,6.18
2023-02-05T18:13:18.565Z,6.60
2023-02-05T18:15:53.846Z,6.93
2023-02-05T18:19:06.171Z,6.95
2023-02-05T18:21:37.349Z,6.40
2023-02-05T18:24:08.655Z,6.78
2023-02-05T18:26:39.946Z,6.43
2023-02-05T18:29:11.111Z,6.78
2023-02-05T18:32:26.583Z,6.68
2023-02-05T18:34:58.538Z,5.85
2023-02-05T18:37:29.815Z,6.32
2023-02-05T18:40:00.761Z,6.18
2023-02-05T18:42:43.131Z,6.85
2023-02-05T18:45:18.653Z,6.25
2023-02-05T18:48:36.600Z,5.85
2023-02-05T18:51:09.563Z,6.28
2023-02-05T18:56:44.561Z,6.07
2023-02-05T18:59:42.226Z,6.07
2023-02-05T19:02:13.368Z,6.30
2023-02-05T19:07:34.073Z,6.00
2023-02-05T19:13:24.945Z,5.88
2023-02-05T19:15:56.345Z,6.25
2023-02-05T19:18:27.362Z,6.47
2023-02-05T19:20:58.422Z,6.05
2023-02-05T19:23:31.296Z,5.90
2023-02-05T19:29:00.279Z,5.72
2023-02-05T19:31:37.853Z,6.13
2023-02-05T19:34:09.524Z,5.70
2023-02-05T19:36:41.027Z,6.18
2023-02-05T19:39:15.617Z,6.07
2023-02-05T19:41:50.636Z,5.65
2023-02-05T19:44:53.509Z,6.47
2023-02-05T19:47:24.893Z,5.65
2023-02-05T19:49:57.083Z,5.85
2023-02-05T19:52:27.993Z,5.65
2023-02-05T19:54:58.980Z,6.03
2023-02-05T19:57:30.002Z,6.32
2023-02-05T20:03:12.068Z,5.72
2023-02-05T20:05:42.940Z,6.05
2023-02-05T20:08:13.998Z,5.65
2023-02-05T20:10:46.116Z,5.57
2023-02-05T20:13:17.551Z,5.82
2023-02-05T20:16:12.070Z,5.78
2023-02-05T20:19:05.344Z,5.65
2023-02-05T20:21:36.554Z,5.65
2023-02-05T20:26:54.528Z,6.15
2023-02-05T20:30:03.357Z,5.70
2023-02-05T20:32:34.764Z,5.65
2023-02-05T20:35:06.057Z,5.25
2023-02-05T20:37:39.744Z,5.05
2023-02-05T20:40:14.248Z,6.28
2023-02-05T20:42:45.306Z,5.20
2023-02-05T20:45:16.023Z,6.07
2023-02-05T20:47:46.828Z,5.82
2023-02-05T20:50:17.697Z,5.57
2023-02-05T20:52:48.795Z,5.00
2023-02-05T20:55:19.801Z,5.50
2023-02-05T20:57:50.953Z,5.50
2023-02-05T21:00:24.054Z,5.30
2023-02-05T21:02:55.203Z,5.20
2023-02-05T21:05:26.444Z,5.43
2023-02-05T21:07:57.599Z,5.53
2023-02-05T21:10:29.405Z,5.35
2023-02-05T21:13:00.581Z,5.60
2023-02-05T21:15:32.736Z,5.80
2023-02-05T21:18:03.682Z,4.78
2023-02-05T21:20:34.967Z,5.70
2023-02-05T21:23:06.126Z,5.72
2023-02-05T21:25:38.249Z,5.70
2023-02-05T21:28:10.546Z,5.70
2023-02-05T21:30:44.425Z,5.57
2023-02-05T21:33:15.077Z,5.57
2023-02-05T21:35:45.726Z,4.78
2023-02-05T21:38:16.617Z,5.68
2023-02-05T21:41:10.133Z,5.45
2023-02-05T21:43:41.718Z,5.20
2023-02-05T21:46:15.135Z,5.25
2023-02-05T21:48:51.024Z,5.68
2023-02-05T21:51:23.971Z,4.97
2023-02-05T21:54:00.239Z,5.47
2023-02-05T21:56:33.974Z,4.78
2023-02-05T22:01:48.490Z,5.35
2023-02-05T22:04:19.952Z,5.50
2023-02-05T22:06:52.153Z,5.15
2023-02-05T22:09:23.362Z,4.93
2023-02-05T22:11:54.102Z,5.28
2023-02-05T22:14:25.238Z,5.15
2023-02-05T22:16:59.976Z,5.53
2023-02-05T22:19:32.666Z,5.55
2023-02-05T22:22:21.766Z,5.40
2023-02-05T22:24:53.504Z,5.13
2023-02-05T22:27:24.609Z,5.03
2023-02-05T22:29:58.370Z,5.40
2023-02-05T22:33:15.921Z,4.85
2023-02-05T22:35:46.874Z,5.07
2023-02-05T22:38:41.555Z,4.78
2023-02-05T22:41:21.113Z,5.75
2023-02-05T22:43:52.634Z,5.10
2023-02-05T22:46:45.996Z,4.63
2023-02-05T22:52:22.185Z,5.13
2023-02-05T22:54:53.260Z,5.30
2023-02-05T22:57:45.343Z,4.75
2023-02-05T23:00:16.781Z,5.18
2023-02-05T23:02:48.156Z,4.93
2023-02-05T23:05:24.442Z,4.82
2023-02-05T23:07:55.795Z,4.88
2023-02-05T23:10:27.064Z,5.07
2023-02-05T23:12:58.174Z,4.60
2023-02-05T23:15:29.338Z,5.30
2023-02-05T23:18:18.760Z,5.00
2023-02-05T23:21:15.102Z,5.03
2023-02-05T23:24:21.842Z,4.68
2023-02-05T23:27:04.329Z,5.03
2023-02-05T23:30:22.968Z,4.60
2023-02-05T23:33:07.937Z,4.93
2023-02-05T23:35:42.753Z,4.80
2023-02-05T23:38:13.432Z,6.00
2023-02-05T23:41:53.698Z,4.40
2023-02-05T23:44:54.827Z,5.25
2023-02-05T23:50:11.886Z,5.13
2023-02-05T23:52:42.634Z,5.18
2023-02-05T23:55:13.687Z,4.53
2023-02-05T23:57:54.667Z,5.18
